Westmoreland, Virginia
Current Conditions -  °F | °C
As of 4:53 AM on Sunday 23 Nov 2014 (Local Time) from KNUI Reporting Station
Clear Clear  
Wind Chill:   Ceiling: Unl
Heat Index:   Visibility: 10mi
Dew Point: -6°   Wind: 10mph
Humidity: 42%   Direction: 200°SSW
Pressure: 30.24"   Gusts: NA
Location:  38.06°N, 76.55°W
Report Text: KNUI 230953Z AUTO 20009KT 10SM CLR 06/M06 A3024 RMK AO2 SLP238 T00611061
Loading
Personal Weather Stations






























Interactive Weather Map New forecast layout! Learn more

10-Day Weather Forecast

Advertisements
Track Severe Weather on mobile